Startpagina
METAR-TAF:

METAR-TAF

Vliegvelden :

Flughafen Siegerland

Siegen, Duitsland

breedte: 50-42-28N, lengte: 008-04-59E, hoogte: 602 m

Actueel weer

Dit bericht is 3 uur en het 28 minuten geleden gemaakt, om 17:50 UTC
Wind 5 kt uit het westzuidwesten
Temperatuur 20°C
Vochtigheid 49%
Druk 1013 hPa
Zicht 10 km of meer
geen wolken onder 1500 m en geen cumulonimbus

METAR: EDGS 181750Z 24005KT CAVOK 20/09 Q1013

Tijdstip: 23:18 (21:18 UTC)

Verwachting

Dit bericht is 4 uur en het 18 minuten geleden gemaakt, om 17:00 UTC
Verwachting geldig van 18 om 18 UTC tot 19 om 03 UTC
Wind 5 kt uit het westzuidwesten
Zicht 10 km of meer
geen wolken onder 1500 m en geen cumulonimbus
Tijdelijke
van 18 om 22 UTC tot 19 om 03 UTC
Zicht: 4500 m
Gebroken wolken op 1300 ft
lichte regen

TAF: EDGS 181700Z 1818/1903 25005KT CAVOK TEMPO 1822/1903 4500 -RA BKN013

Waarnemingen en weersverwachtingen van meer dan 4000 vliegvelden (METAR en TAF).

De beschikbare stations zijn de gele en rode punten op de kaart.

Ga met uw muis naar het station om de naam te zien.

Klik dan om waarnemingen en weersverwachtingen te zien.

kaart wijzigen: klik op de groene knoppen met een zwart kruis om in te zoomen, op de groene knop met een streepje om uit te zoomen of op de groene pijlen voor aangrenzende kaarten.


METAR-TAF: